Time;durP1;ratioP1;P1;durP2;ratioP2;P2;SDS_P1;SDS_P2;PMS_P1;PMS_P2;Temp;Humidity;BMP_temperature;BMP_pressure;BME280_temperature;BME280_humidity;BME280_pressure;Samples;Min_cycle;Max_cycle;Signal;HPM_P1;HPM_P2
2022/04/01 00:01:50;;;;;;;2.80;1.75;;;0.60;99.90;;;;;;5096466;28;20083;-63
2022/04/01 00:04:17;;;;;;;3.05;1.75;;;0.70;99.90;;;;;;5114320;28;20050;-60
2022/04/01 00:06:42;;;;;;;4.40;1.52;;;1.10;99.90;;;;;;5096288;28;20047;-59
2022/04/01 00:09:08;;;;;;;2.78;1.60;;;0.70;99.90;;;;;;5114266;28;20123;-61
2022/04/01 00:11:34;;;;;;;4.18;1.60;;;0.70;99.90;;;;;;5062665;28;20040;-59
2022/04/01 00:14:00;;;;;;;2.47;1.60;;;0.70;99.90;;;;;;5096555;28;20124;-60
2022/04/01 00:16:26;;;;;;;3.42;1.80;;;0.70;99.90;;;;;;5079363;28;20473;-62
2022/04/01 00:18:53;;;;;;;4.63;1.67;;;0.70;99.90;;;;;;5078949;28;20108;-59
2022/04/01 00:21:19;;;;;;;3.38;1.60;;;0.70;99.90;;;;;;5096210;28;20048;-60
2022/04/01 00:23:44;;;;;;;7.28;2.17;;;0.90;99.90;;;;;;5096094;28;20139;-59
2022/04/01 00:26:10;;;;;;;3.30;1.60;;;0.70;99.90;;;;;;5096298;28;20446;-60
2022/04/01 00:28:36;;;;;;;2.67;1.83;;;0.70;99.90;;;;;;5113939;28;20148;-60
2022/04/01 00:31:02;;;;;;;3.45;1.58;;;0.20;99.90;;;;;;5096181;28;20154;-62
2022/04/01 00:33:28;;;;;;;3.30;1.83;;;0.70;99.90;;;;;;5095832;28;20087;-62
2022/04/01 00:35:53;;;;;;;3.25;1.85;;;0.70;99.90;;;;;;5113412;28;20047;-60
2022/04/01 00:38:19;;;;;;;4.53;1.60;;;0.70;99.90;;;;;;5079390;28;20162;-61
2022/04/01 00:40:45;;;;;;;4.13;1.75;;;0.70;99.90;;;;;;5078479;28;20408;-60
2022/04/01 00:43:11;;;;;;;3.50;1.67;;;0.90;99.90;;;;;;5095988;28;20079;-60
2022/04/01 00:45:37;;;;;;;2.92;1.70;;;0.70;99.90;;;;;;5113522;28;20401;-61
2022/04/01 00:48:03;;;;;;;3.85;1.90;;;0.70;99.90;;;;;;5078438;28;20062;-61
2022/04/01 00:50:32;;;;;;;10.90;2.13;;;0.60;99.90;;;;;;5113689;28;20055;-63
2022/04/01 00:52:59;;;;;;;3.55;1.80;;;0.80;99.90;;;;;;5095642;28;20071;-60
2022/04/01 00:55:27;;;;;;;3.00;1.60;;;0.60;99.90;;;;;;5111905;28;20135;-58
2022/04/01 00:57:53;;;;;;;4.43;2.08;;;0.60;99.90;;;;;;5113308;28;20452;-61
2022/04/01 01:00:19;;;;;;;3.80;2.00;;;0.80;99.90;;;;;;5113527;28;20497;-59
2022/04/01 01:02:46;;;;;;;3.17;1.90;;;0.60;99.90;;;;;;5094794;28;20055;-60
2022/04/01 01:05:12;;;;;;;3.25;1.73;;;0.60;99.90;;;;;;5113776;28;20130;-61
2022/04/01 01:07:44;;;;;;;3.00;2.05;;;0.60;99.90;;;;;;5113167;28;20606;-58
2022/04/01 01:10:10;;;;;;;4.82;2.50;;;0.70;99.90;;;;;;5095822;28;20043;-60
2022/04/01 01:12:37;;;;;;;4.03;1.92;;;0.70;99.90;;;;;;5113022;28;20047;-60
2022/04/01 01:15:11;;;;;;;6.53;2.28;;;0.70;99.90;;;;;;5095339;28;20127;-59
2022/04/01 01:17:39;;;;;;;2.90;1.75;;;0.80;99.90;;;;;;5111010;28;20044;-59
2022/04/01 01:20:12;;;;;;;4.30;1.80;;;1.00;99.90;;;;;;5112870;28;20408;-60
2022/04/01 01:22:49;;;;;;;6.25;2.08;;;0.80;99.90;;;;;;5113170;28;20048;-60
2022/04/01 01:25:16;;;;;;;4.40;1.88;;;0.90;99.90;;;;;;5113571;28;20047;-59
2022/04/01 01:27:43;;;;;;;5.57;2.03;;;1.10;99.90;;;;;;5112894;28;20043;-59
2022/04/01 01:30:10;;;;;;;5.35;1.92;;;1.00;99.90;;;;;;5113068;28;20039;-61
2022/04/01 01:32:37;;;;;;;3.92;1.88;;;1.00;99.90;;;;;;5112690;28;20042;-62
2022/04/01 01:35:05;;;;;;;3.25;1.73;;;1.00;99.90;;;;;;5095077;28;20055;-60
2022/04/01 01:37:31;;;;;;;4.07;1.88;;;1.00;99.90;;;;;;5094817;28;20049;-59
2022/04/01 01:39:58;;;;;;;4.10;1.80;;;1.10;99.90;;;;;;5094692;28;20079;-61
2022/04/01 01:42:24;;;;;;;6.32;2.15;;;1.10;99.90;;;;;;5113048;28;20039;-61
2022/04/01 01:44:50;;;;;;;4.68;1.70;;;1.40;99.90;;;;;;5077154;28;20462;-60
2022/04/01 01:47:16;;;;;;;2.95;1.80;;;1.60;99.90;;;;;;5111963;28;20051;-62
2022/04/01 01:54:42;;;;;;;2.20;1.48;;;1.10;99.90;;;;;;5111844;28;20044;-60
2022/04/01 01:55:11;;;;;;;4.45;1.98;;;1.20;99.90;;;;;;5097302;28;20058;-60
2022/04/01 01:57:37;;;;;;;4.72;1.85;;;1.30;99.90;;;;;;5112370;28;20039;-63
2022/04/01 02:00:10;;;;;;;6.75;2.00;;;1.30;99.90;;;;;;5112341;28;20051;-59
2022/04/01 02:02:37;;;;;;;4.93;1.70;;;1.30;99.90;;;;;;5112672;28;20059;-63
2022/04/01 02:05:04;;;;;;;4.18;1.77;;;1.30;99.90;;;;;;5112558;28;20048;-60
2022/04/01 02:07:30;;;;;;;6.22;2.15;;;1.30;99.90;;;;;;5094047;28;20742;-59
2022/04/01 02:09:56;;;;;;;4.13;1.67;;;1.30;99.90;;;;;;5111968;28;20043;-60
2022/04/01 02:12:22;;;;;;;3.67;1.73;;;1.30;99.90;;;;;;5094459;28;20097;-59
2022/04/01 02:14:48;;;;;;;3.88;1.80;;;1.30;99.90;;;;;;5112004;28;20047;-60
2022/04/01 02:17:13;;;;;;;4.30;2.20;;;1.30;99.90;;;;;;5093836;28;20040;-59
2022/04/01 02:19:39;;;;;;;6.13;2.30;;;1.50;99.90;;;;;;5076685;28;20059;-63
2022/04/01 02:22:05;;;;;;;3.80;1.67;;;1.40;99.90;;;;;;5112145;28;20047;-60
2022/04/01 02:24:31;;;;;;;4.13;2.03;;;1.40;99.90;;;;;;5093906;28;20132;-59
2022/04/01 02:26:57;;;;;;;3.67;1.63;;;1.30;99.90;;;;;;5093504;28;20240;-59
2022/04/01 02:29:23;;;;;;;2.70;1.63;;;1.30;99.90;;;;;;5077080;28;20036;-60
2022/04/01 02:31:50;;;;;;;8.18;2.35;;;1.30;99.90;;;;;;5111931;28;20097;-61
2022/04/01 02:34:17;;;;;;;4.15;2.00;;;1.30;99.90;;;;;;5093925;28;20047;-59
2022/04/01 02:36:43;;;;;;;3.53;1.52;;;1.30;99.90;;;;;;5111852;28;20061;-62
2022/04/01 02:39:09;;;;;;;5.07;2.33;;;1.30;99.90;;;;;;5076594;28;20044;-60
2022/04/01 02:41:35;;;;;;;4.30;1.83;;;1.80;99.90;;;;;;5111762;28;20043;-59
2022/04/01 02:44:08;;;;;;;3.72;1.83;;;1.30;99.90;;;;;;5093571;28;20051;-59
2022/04/01 02:46:45;;;;;;;2.90;2.10;;;1.30;99.90;;;;;;5093831;28;20040;-61
2022/04/01 02:49:15;;;;;;;6.07;1.70;;;1.70;99.90;;;;;;5093315;28;20484;-60
2022/04/01 02:51:42;;;;;;;5.05;1.80;;;1.30;99.90;;;;;;5076916;28;20043;-60
2022/04/01 02:54:09;;;;;;;5.50;1.95;;;1.30;99.90;;;;;;5093637;28;20083;-60
2022/04/01 02:56:37;;;;;;;4.47;1.65;;;1.30;99.90;;;;;;5093762;28;20048;-61
2022/04/01 02:59:08;;;;;;;4.60;1.90;;;1.30;99.90;;;;;;5075973;28;20231;-60
2022/04/01 03:01:39;;;;;;;4.25;2.10;;;1.30;99.90;;;;;;5111752;28;20089;-60
2022/04/01 03:04:10;;;;;;;2.63;1.58;;;1.30;99.90;;;;;;5076246;28;20556;-59
2022/04/01 03:06:40;;;;;;;5.72;1.98;;;1.50;99.90;;;;;;5093778;28;20050;-59
2022/04/01 03:09:15;;;;;;;4.90;1.63;;;1.30;99.90;;;;;;5092780;28;20106;-60
2022/04/01 03:11:42;;;;;;;5.20;1.80;;;1.30;99.90;;;;;;5093476;28;20039;-61
2022/04/01 03:14:09;;;;;;;3.38;1.50;;;1.30;99.90;;;;;;5075908;28;20075;-60
2022/04/01 03:16:39;;;;;;;3.63;1.65;;;1.40;99.90;;;;;;5111385;28;20086;-60
2022/04/01 03:19:08;;;;;;;2.58;1.52;;;1.30;99.90;;;;;;5092908;28;20048;-59
2022/04/01 03:21:41;;;;;;;6.65;1.60;;;1.30;99.90;;;;;;5111576;28;20139;-61
2022/04/01 03:24:11;;;;;;;2.42;1.40;;;1.30;99.90;;;;;;5093527;28;20039;-58
2022/04/01 03:26:40;;;;;;;4.60;1.60;;;1.30;99.90;;;;;;5093428;28;20048;-61
2022/04/01 03:29:07;;;;;;;4.30;2.15;;;1.30;99.90;;;;;;5110996;28;20126;-60
2022/04/01 03:31:33;;;;;;;8.13;1.95;;;1.30;99.90;;;;;;5111342;28;20126;-59
2022/04/01 03:33:59;;;;;;;4.40;1.75;;;1.30;99.90;;;;;;5110648;28;20185;-60
2022/04/01 03:36:25;;;;;;;6.15;1.70;;;1.30;99.90;;;;;;5111469;28;20135;-60
2022/04/01 03:38:52;;;;;;;5.20;2.13;;;1.30;99.90;;;;;;5110547;28;20432;-64
2022/04/01 03:41:19;;;;;;;5.38;2.10;;;1.30;99.90;;;;;;5110917;28;20502;-60
2022/04/01 03:43:45;;;;;;;4.60;2.10;;;1.30;99.90;;;;;;5093152;28;20105;-60
2022/04/01 03:46:13;;;;;;;6.70;2.05;;;1.30;99.90;;;;;;5092499;28;20052;-60
2022/04/01 03:48:45;;;;;;;3.85;1.70;;;1.30;99.90;;;;;;5111285;28;20048;-60
2022/04/01 03:51:19;;;;;;;3.97;1.95;;;1.40;99.90;;;;;;5092710;28;20127;-59
2022/04/01 03:54:03;;;;;;;5.00;1.60;;;1.30;99.90;;;;;;5111219;28;20048;-60
2022/04/01 03:56:40;;;;;;;3.00;1.55;;;1.40;99.90;;;;;;5111416;28;20043;-59
2022/04/01 03:59:08;;;;;;;2.92;1.63;;;1.30;99.90;;;;;;5094257;28;20059;-59
2022/04/01 04:01:38;;;;;;;3.85;1.58;;;1.40;99.90;;;;;;5111203;28;20511;-60
2022/04/01 04:04:05;;;;;;;4.38;2.05;;;1.40;99.90;;;;;;5110595;28;20048;-59
2022/04/01 04:06:34;;;;;;;4.45;1.73;;;1.40;99.90;;;;;;5111222;28;20492;-60
2022/04/01 04:09:02;;;;;;;4.72;1.98;;;1.50;99.90;;;;;;5110633;28;20052;-59
2022/04/01 04:11:34;;;;;;;5.53;1.38;;;1.40;99.90;;;;;;5094774;28;20147;-60
2022/04/01 04:14:01;;;;;;;5.07;1.90;;;1.40;99.90;;;;;;5095933;28;20051;-59
2022/04/01 04:16:30;;;;;;;5.00;1.80;;;1.40;99.90;;;;;;5114754;28;20131;-60
2022/04/01 04:19:11;;;;;;;6.50;2.40;;;1.50;99.90;;;;;;5096060;28;20134;-62
2022/04/01 04:21:49;;;;;;;4.63;1.75;;;1.70;99.90;;;;;;5114763;28;20063;-60
2022/04/01 04:24:25;;;;;;;6.45;2.13;;;1.50;99.90;;;;;;5095858;28;20139;-60
2022/04/01 04:26:51;;;;;;;2.97;1.30;;;1.50;99.90;;;;;;5096443;28;20044;-61
2022/04/01 04:29:18;;;;;;;5.75;1.85;;;1.50;99.90;;;;;;5095817;28;20040;-59
2022/04/01 04:31:59;;;;;;;3.35;1.60;;;1.60;99.90;;;;;;5114675;28;20484;-59
2022/04/01 04:34:36;;;;;;;4.05;1.75;;;1.50;99.90;;;;;;5114198;28;20043;-60
2022/04/01 04:37:08;;;;;;;6.28;2.10;;;1.50;99.90;;;;;;5113744;28;20545;-60
2022/04/01 04:39:35;;;;;;;4.35;2.20;;;1.50;99.90;;;;;;5079428;28;20044;-61
2022/04/01 04:42:02;;;;;;;5.60;2.03;;;1.70;99.90;;;;;;5095963;28;20044;-60
2022/04/01 04:44:30;;;;;;;7.50;2.25;;;1.50;99.90;;;;;;5114203;28;20043;-60
2022/04/01 04:47:00;;;;;;;4.32;1.90;;;1.80;99.90;;;;;;5095972;28;20499;-62
2022/04/01 04:49:28;;;;;;;10.98;1.85;;;1.50;99.90;;;;;;5096031;28;20035;-61
2022/04/01 04:51:54;;;;;;;7.85;1.98;;;1.50;99.90;;;;;;5079151;28;20051;-59
2022/04/01 04:54:21;;;;;;;4.13;1.77;;;1.50;99.90;;;;;;5095324;28;20044;-60
2022/04/01 04:56:49;;;;;;;3.90;1.70;;;1.50;99.90;;;;;;5095523;28;20040;-61
2022/04/01 04:59:19;;;;;;;4.30;1.88;;;1.50;99.90;;;;;;5113486;28;20131;-62
2022/04/01 05:01:54;;;;;;;7.30;1.83;;;1.70;99.90;;;;;;5095991;28;20112;-60
2022/04/01 05:04:29;;;;;;;2.63;1.60;;;1.60;99.90;;;;;;5113593;28;20054;-59
2022/04/01 05:07:26;;;;;;;6.20;1.85;;;1.60;99.90;;;;;;5095725;28;20053;-59
2022/04/01 05:10:01;;;;;;;4.70;1.85;;;1.60;99.90;;;;;;5095269;28;20485;-62
2022/04/01 05:12:32;;;;;;;3.45;1.60;;;1.50;99.90;;;;;;5095580;28;20056;-62
2022/04/01 05:15:01;;;;;;;3.50;1.70;;;1.50;99.90;;;;;;5113192;28;20050;-59
2022/04/01 05:17:47;;;;;;;3.55;1.60;;;1.60;99.90;;;;;;5095534;28;20408;-61
2022/04/01 05:20:16;;;;;;;5.93;2.00;;;1.60;99.90;;;;;;5077591;28;20081;-60
2022/04/01 05:23:11;;;;;;;3.92;1.60;;;1.60;99.90;;;;;;5113190;28;20047;-60
2022/04/01 05:25:58;;;;;;;4.60;1.60;;;1.60;99.90;;;;;;5095321;28;20081;-61
2022/04/01 05:28:29;;;;;;;6.10;2.03;;;1.80;99.90;;;;;;5113144;28;20081;-60
2022/04/01 05:31:08;;;;;;;6.28;1.70;;;2.00;99.90;;;;;;5112531;28;20050;-60
2022/04/01 05:33:44;;;;;;;4.72;1.70;;;1.60;99.90;;;;;;5094960;28;20105;-60
2022/04/01 05:36:12;;;;;;;4.90;1.48;;;1.60;99.90;;;;;;5112847;28;20040;-61
2022/04/01 05:38:39;;;;;;;5.80;1.90;;;1.60;99.90;;;;;;5094884;28;20042;-59
2022/04/01 05:41:06;;;;;;;4.85;1.83;;;1.60;99.90;;;;;;5077914;28;20058;-64
2022/04/01 05:43:33;;;;;;;3.03;1.73;;;1.60;99.90;;;;;;5112419;28;20039;-61
2022/04/01 05:45:59;;;;;;;4.45;1.73;;;1.60;99.90;;;;;;5094134;28;20039;-60
2022/04/01 05:48:27;;;;;;;3.30;1.90;;;1.70;99.90;;;;;;5094324;28;20630;-59
2022/04/01 05:50:53;;;;;;;4.00;1.85;;;1.70;99.90;;;;;;5112393;28;20509;-60
2022/04/01 05:53:21;;;;;;;4.20;1.80;;;1.70;99.90;;;;;;5112418;28;20090;-60
2022/04/01 05:55:48;;;;;;;5.55;1.95;;;1.70;99.90;;;;;;5112615;28;20048;-60
2022/04/01 05:58:14;;;;;;;6.90;1.88;;;1.70;99.90;;;;;;5094175;28;20039;-59
2022/04/01 06:01:25;;;;;;;5.60;2.10;;;1.80;99.90;;;;;;5094394;28;20044;-60
2022/04/01 06:03:59;;;;;;;4.90;2.05;;;1.70;99.90;;;;;;5083607;28;20135;-61
2022/04/01 06:06:49;;;;;;;5.97;1.83;;;1.70;99.90;;;;;;5112187;28;20055;-59
2022/04/01 06:09:45;;;;;;;3.38;1.73;;;1.70;99.90;;;;;;5111991;28;20128;-60
2022/04/01 06:12:28;;;;;;;5.63;2.05;;;1.70;99.90;;;;;;5111807;28;20050;-60
2022/04/01 06:15:22;;;;;;;6.05;1.70;;;1.70;99.90;;;;;;5077172;28;20105;-64
2022/04/01 06:18:34;;;;;;;6.68;2.03;;;1.70;99.90;;;;;;5112250;28;20047;-60
2022/04/01 06:21:07;;;;;;;5.93;2.03;;;1.70;99.90;;;;;;5111159;28;20048;-59
2022/04/01 06:24:02;;;;;;;5.13;1.70;;;1.70;99.90;;;;;;5093718;28;20054;-61
2022/04/01 06:26:32;;;;;;;;;;;1.70;99.90;;;;;;5111668;28;20104;-60
2022/04/01 06:29:25;;;;;;;6.30;2.30;;;1.80;99.90;;;;;;5111844;28;19949;-59
2022/04/01 06:32:05;;;;;;;4.75;1.98;;;1.90;99.90;;;;;;5095338;28;20392;-61
2022/04/01 06:34:58;;;;;;;3.50;1.65;;;1.80;99.90;;;;;;5110958;28;20195;-59
2022/04/01 06:37:29;;;;;;;4.28;1.55;;;1.80;99.90;;;;;;5076290;28;20047;-60
2022/04/01 06:40:10;;;;;;;4.82;2.15;;;1.90;99.90;;;;;;5093675;28;20039;-61
2022/04/01 06:42:37;;;;;;;3.85;1.52;;;1.90;99.90;;;;;;5111685;28;20051;-59
2022/04/01 06:45:09;;;;;;;5.07;1.63;;;1.90;99.90;;;;;;5111601;28;20055;-59
2022/04/01 06:47:35;;;;;;;4.13;1.88;;;1.90;99.90;;;;;;5111229;28;20082;-59
2022/04/01 06:50:02;;;;;;;7.65;2.50;;;1.90;99.90;;;;;;5076554;28;20275;-62
2022/04/01 06:52:28;;;;;;;4.47;2.03;;;2.00;99.90;;;;;;5092864;28;20130;-61
2022/04/01 06:54:54;;;;;;;4.80;1.70;;;2.00;99.90;;;;;;5111501;28;20127;-60
2022/04/01 06:57:21;;;;;;;5.07;1.85;;;2.00;99.90;;;;;;5059440;28;20039;-62
2022/04/01 06:59:47;;;;;;;4.13;1.60;;;2.10;99.90;;;;;;5060203;28;20128;-60
2022/04/01 07:02:12;;;;;;;3.05;1.65;;;2.10;99.90;;;;;;5093399;28;20484;-66
2022/04/01 07:04:38;;;;;;;4.72;1.88;;;2.10;99.90;;;;;;5093535;28;20043;-61
2022/04/01 07:07:04;;;;;;;3.25;1.50;;;2.10;99.90;;;;;;5076910;28;20055;-60
2022/04/01 07:09:30;;;;;;;5.25;1.65;;;2.10;99.90;;;;;;5093000;28;20074;-60
2022/04/01 07:12:01;;;;;;;3.45;1.50;;;2.30;99.90;;;;;;5093396;28;20104;-60
2022/04/01 07:14:27;;;;;;;2.72;1.48;;;2.10;99.90;;;;;;5076394;28;20046;-61
2022/04/01 07:16:54;;;;;;;3.45;1.40;;;2.10;99.90;;;;;;5111506;28;20101;-60
2022/04/01 07:19:20;;;;;;;3.92;1.63;;;2.10;99.90;;;;;;5110600;28;20072;-60
2022/04/01 07:21:46;;;;;;;4.03;1.25;;;2.20;99.90;;;;;;5111377;28;20052;-60
2022/04/01 07:24:12;;;;;;;3.15;1.48;;;2.20;99.90;;;;;;5093150;28;20096;-61
2022/04/01 07:26:38;;;;;;;2.17;1.10;;;2.20;99.90;;;;;;5076160;28;20050;-61
2022/04/01 07:29:04;;;;;;;2.78;1.30;;;2.20;99.90;;;;;;5093217;28;20040;-61
2022/04/01 07:34:21;;;;;;;1.92;1.23;;;2.20;99.90;;;;;;5111578;28;20370;-61
2022/04/01 07:36:48;;;;;;;5.00;1.52;;;2.20;99.90;;;;;;5111177;28;20059;-61
2022/04/01 07:39:15;;;;;;;4.07;1.42;;;2.20;99.90;;;;;;5092994;28;20100;-62
2022/04/01 07:41:41;;;;;;;2.78;1.50;;;2.20;99.90;;;;;;5110881;28;20446;-60
2022/04/01 07:44:07;;;;;;;5.13;1.95;;;2.20;99.90;;;;;;5093069;28;20369;-60
2022/04/01 07:46:33;;;;;;;2.65;1.17;;;2.20;99.90;;;;;;5114307;28;20062;-61
2022/04/01 07:48:59;;;;;;;4.07;2.15;;;2.20;99.90;;;;;;5114866;28;20081;-63
2022/04/01 07:51:25;;;;;;;3.67;1.52;;;2.20;99.90;;;;;;5114086;28;20430;-60
2022/04/01 07:53:51;;;;;;;2.67;1.77;;;2.60;99.90;;;;;;5096895;28;20039;-61
2022/04/01 07:56:16;;;;;;;4.03;1.88;;;2.20;99.90;;;;;;5096432;28;20089;-61
2022/04/01 07:58:42;;;;;;;3.33;1.55;;;2.10;99.90;;;;;;5095926;28;20127;-59
2022/04/01 08:01:08;;;;;;;3.55;1.80;;;2.10;99.90;;;;;;5096710;28;20123;-61
2022/04/01 08:03:33;;;;;;;2.63;1.48;;;2.50;99.90;;;;;;5114019;28;20051;-62
2022/04/01 08:05:59;;;;;;;3.45;1.50;;;2.10;99.90;;;;;;5114774;28;20048;-61
2022/04/01 08:08:25;;;;;;;3.65;1.70;;;2.10;99.90;;;;;;5096133;28;20124;-60
2022/04/01 08:10:51;;;;;;;2.53;1.40;;;2.10;99.90;;;;;;5096255;28;20392;-61
2022/04/01 08:13:17;;;;;;;2.13;1.52;;;2.10;99.90;;;;;;5096392;28;20043;-60
2022/04/01 08:15:43;;;;;;;6.90;1.80;;;2.10;99.90;;;;;;5114325;28;20184;-61
2022/04/01 08:18:09;;;;;;;3.33;1.60;;;2.10;99.90;;;;;;5096351;28;20118;-61
2022/04/01 08:20:35;;;;;;;5.22;1.88;;;2.10;99.90;;;;;;5095639;28;20059;-60
2022/04/01 08:23:02;;;;;;;2.55;1.23;;;2.20;99.90;;;;;;5096503;28;20123;-62
2022/04/01 08:25:28;;;;;;;4.78;1.50;;;2.20;99.90;;;;;;5113991;28;20075;-62
2022/04/01 08:27:53;;;;;;;2.20;1.40;;;2.20;99.90;;;;;;5093878;28;20147;-62
2022/04/01 08:30:19;;;;;;;3.22;1.63;;;2.40;99.90;;;;;;5095781;28;20043;-61
2022/04/01 08:32:45;;;;;;;3.20;1.70;;;2.30;99.90;;;;;;5095461;28;20298;-62
2022/04/01 08:35:11;;;;;;;2.65;1.70;;;2.30;99.90;;;;;;5079377;28;20485;-60
2022/04/01 08:37:38;;;;;;;3.42;1.52;;;2.40;99.90;;;;;;5095951;28;20481;-60
2022/04/01 08:40:05;;;;;;;3.35;1.75;;;2.40;99.90;;;;;;5113848;28;20047;-60
2022/04/01 08:42:32;;;;;;;3.75;1.90;;;2.40;99.90;;;;;;5095248;28;20112;-61
2022/04/01 08:44:58;;;;;;;2.25;1.30;;;2.70;99.90;;;;;;5114162;28;20066;-61
2022/04/01 08:47:24;;;;;;;2.72;1.52;;;2.60;99.90;;;;;;5095995;28;20079;-62
2022/04/01 08:49:52;;;;;;;3.55;1.67;;;2.70;99.90;;;;;;5113417;28;20086;-60
2022/04/01 08:52:18;;;;;;;3.00;1.60;;;2.90;99.90;;;;;;5114030;28;20048;-60
2022/04/01 08:54:44;;;;;;;4.55;1.80;;;2.70;99.90;;;;;;5078698;28;20131;-60
2022/04/01 08:57:10;;;;;;;2.45;1.30;;;2.70;99.90;;;;;;5113355;28;20122;-62
2022/04/01 08:59:36;;;;;;;4.78;1.95;;;2.70;99.90;;;;;;5095565;28;20039;-62
2022/04/01 09:02:10;;;;;;;2.60;1.50;;;2.70;99.90;;;;;;5094317;28;20055;-61
2022/04/01 09:04:36;;;;;;;3.47;1.50;;;3.10;99.90;;;;;;5095713;28;20051;-61
2022/04/01 09:07:13;;;;;;;4.75;1.70;;;2.90;99.90;;;;;;5113939;28;20054;-60
2022/04/01 09:09:39;;;;;;;4.88;2.08;;;2.90;99.90;;;;;;5112843;28;20035;-60
2022/04/01 09:12:15;;;;;;;2.42;1.40;;;2.90;99.90;;;;;;5113523;28;20646;-60
2022/04/01 09:14:50;;;;;;;3.72;1.98;;;2.90;99.90;;;;;;5113223;28;20048;-62
2022/04/01 09:17:16;;;;;;;3.38;1.55;;;2.90;99.90;;;;;;5113527;28;20051;-61
2022/04/01 09:19:41;;;;;;;3.67;1.95;;;3.30;99.90;;;;;;5112420;28;20051;-61
2022/04/01 09:22:19;;;;;;;3.03;1.63;;;2.80;99.90;;;;;;5078687;28;20206;-61
2022/04/01 09:25:13;;;;;;;4.63;1.77;;;2.90;99.90;;;;;;5112957;28;20048;-62
2022/04/01 09:27:45;;;;;;;4.07;1.70;;;3.00;99.90;;;;;;5091206;28;20083;-60
2022/04/01 09:30:14;;;;;;;2.15;1.65;;;3.10;99.90;;;;;;5112026;28;20044;-62
2022/04/01 09:32:49;;;;;;;3.83;1.52;;;3.20;99.90;;;;;;5112848;28;20046;-61
2022/04/01 09:35:17;;;;;;;4.00;1.80;;;3.20;99.90;;;;;;5094480;28;20093;-61
2022/04/01 09:37:45;;;;;;;3.88;1.67;;;3.10;99.90;;;;;;5074036;28;20157;-61
2022/04/01 09:40:14;;;;;;;4.13;1.80;;;3.20;99.90;;;;;;5113014;28;20047;-61
2022/04/01 09:42:46;;;;;;;3.60;1.83;;;3.20;99.90;;;;;;5112481;28;20135;-60
2022/04/01 09:45:19;;;;;;;5.43;2.17;;;3.50;99.90;;;;;;5094817;28;20040;-61
2022/04/01 09:47:55;;;;;;;2.78;1.83;;;3.30;99.90;;;;;;5094666;28;20104;-63
2022/04/01 09:50:32;;;;;;;3.92;1.38;;;3.40;99.90;;;;;;5112677;28;20374;-63
2022/04/01 09:53:11;;;;;;;3.17;1.92;;;3.50;99.90;;;;;;5094482;28;20044;-61
2022/04/01 09:55:39;;;;;;;4.25;1.70;;;3.60;99.90;;;;;;5112133;28;20515;-60
2022/04/01 09:58:06;;;;;;;8.52;1.90;;;3.70;99.90;;;;;;5093203;28;20091;-63
2022/04/01 10:00:33;;;;;;;4.10;1.52;;;3.70;99.90;;;;;;5112637;28;20053;-60
2022/04/01 10:02:59;;;;;;;4.13;1.95;;;3.70;99.90;;;;;;5093910;28;20051;-62
2022/04/01 10:05:26;;;;;;;3.95;1.63;;;3.70;99.90;;;;;;5112825;28;20044;-62
2022/04/01 10:08:01;;;;;;;4.60;1.60;;;3.80;99.90;;;;;;5112109;28;20085;-60
2022/04/01 10:10:28;;;;;;;5.80;1.60;;;3.80;99.90;;;;;;5111286;28;20079;-61
2022/04/01 10:13:06;;;;;;;3.72;1.88;;;4.20;99.90;;;;;;5112223;28;20046;-61
2022/04/01 10:15:32;;;;;;;4.07;1.77;;;4.00;99.90;;;;;;5112653;28;20123;-61
2022/04/01 10:18:01;;;;;;;5.50;2.05;;;4.20;99.90;;;;;;5112152;28;20051;-62
2022/04/01 10:20:33;;;;;;;2.97;1.33;;;4.20;99.90;;;;;;5090634;28;20091;-61
2022/04/01 10:23:03;;;;;;;3.53;1.77;;;4.30;99.90;;;;;;5091668;28;20233;-60
2022/04/01 10:25:45;;;;;;;3.33;1.30;;;4.30;99.90;;;;;;5090826;28;20048;-63
2022/04/01 10:28:11;;;;;;;3.58;1.50;;;4.50;99.90;;;;;;5092092;28;20052;-61
2022/04/01 10:30:40;;;;;;;4.30;1.80;;;4.50;99.90;;;;;;5091864;28;20366;-66
2022/04/01 10:33:06;;;;;;;5.30;1.73;;;4.50;99.90;;;;;;5091995;28;20043;-63
2022/04/01 10:35:35;;;;;;;4.57;1.70;;;4.50;99.90;;;;;;5089964;28;20048;-62
2022/04/01 10:38:07;;;;;;;3.40;1.52;;;4.60;99.90;;;;;;5091370;28;20130;-62
2022/04/01 10:40:37;;;;;;;3.72;1.70;;;4.60;99.90;;;;;;5089962;28;20116;-62
2022/04/01 10:43:30;;;;;;;3.63;1.60;;;4.60;99.90;;;;;;5091089;28;20051;-62
2022/04/01 10:46:07;;;;;;;2.85;1.75;;;4.70;99.90;;;;;;5088143;28;20060;-63
2022/04/01 10:51:36;;;;;;;4.30;1.90;;;4.70;99.90;;;;;;5091286;28;20071;-60
2022/04/01 10:54:26;;;;;;;3.08;1.73;;;4.60;99.90;;;;;;5090239;28;20248;-62
2022/04/01 10:57:07;;;;;;;3.10;1.50;;;4.70;99.90;;;;;;5091173;28;20062;-62
2022/04/01 10:59:47;;;;;;;4.97;1.60;;;4.60;99.90;;;;;;5091396;28;20043;-61
2022/04/01 11:02:18;;;;;;;2.92;1.60;;;4.50;99.90;;;;;;5090152;28;20047;-61
2022/04/01 11:04:45;;;;;;;4.45;1.58;;;4.60;99.90;;;;;;5091186;28;20048;-62
2022/04/01 11:07:21;;;;;;;4.85;1.58;;;4.50;99.90;;;;;;5090556;28;20106;-61
2022/04/01 11:09:55;;;;;;;5.53;2.05;;;4.50;99.90;;;;;;5089668;28;20058;-62
2022/04/01 11:12:28;;;;;;;5.53;1.95;;;4.60;99.90;;;;;;5090083;28;20043;-60
2022/04/01 11:14:56;;;;;;;4.57;1.90;;;4.50;99.90;;;;;;5089680;28;20058;-62
2022/04/01 11:17:34;;;;;;;3.53;1.85;;;4.60;99.90;;;;;;5089700;28;20147;-62
2022/04/01 11:20:18;;;;;;;3.25;1.15;;;4.60;99.90;;;;;;5099474;28;20056;-63
2022/04/01 11:22:53;;;;;;;4.67;1.40;;;4.70;99.90;;;;;;5115309;28;20063;-65
2022/04/01 11:25:22;;;;;;;;;;;4.80;99.40;;;;;;5097975;28;20281;-62
2022/04/01 11:27:51;;;;;;;4.75;1.55;;;4.70;98.10;;;;;;5097079;28;19945;-61
2022/04/01 11:30:24;;;;;;;2.85;1.50;;;4.80;97.90;;;;;;5115594;28;20083;-62
2022/04/01 11:32:55;;;;;;;2.03;1.20;;;4.80;98.40;;;;;;5115447;28;20130;-62
2022/04/01 11:35:23;;;;;;;1.98;1.13;;;4.90;98.50;;;;;;5097786;28;20066;-61
2022/04/01 11:37:49;;;;;;;3.25;1.60;;;4.80;98.30;;;;;;5115118;28;20123;-61
2022/04/01 11:40:22;;;;;;;2.30;1.60;;;4.90;98.60;;;;;;5115402;28;20112;-61
2022/04/01 11:43:06;;;;;;;2.60;1.58;;;4.90;99.90;;;;;;5096407;28;20040;-61
2022/04/01 11:45:44;;;;;;;2.95;1.42;;;5.00;99.90;;;;;;5115496;28;20093;-61
2022/04/01 11:48:28;;;;;;;4.38;1.60;;;5.10;99.50;;;;;;5080868;28;20057;-60
2022/04/01 11:50:57;;;;;;;3.38;1.30;;;5.20;99.90;;;;;;5114867;28;20119;-62
2022/04/01 11:53:45;;;;;;;3.83;1.55;;;5.20;99.90;;;;;;5097264;28;20426;-61
2022/04/01 11:56:12;;;;;;;3.30;1.50;;;5.20;99.90;;;;;;5079991;28;20056;-60
2022/04/01 11:58:47;;;;;;;4.00;1.50;;;5.10;99.90;;;;;;5115361;28;20047;-62
2022/04/01 12:01:15;;;;;;;3.13;1.83;;;5.10;99.90;;;;;;5114476;28;20260;-62
2022/04/01 12:03:41;;;;;;;2.50;1.70;;;5.00;99.90;;;;;;5115828;28;20079;-60
2022/04/01 12:08:51;;;;;;;2.67;1.60;;;4.90;99.90;;;;;;5114440;28;20063;-62
2022/04/01 12:11:18;;;;;;;3.78;1.67;;;4.90;99.90;;;;;;5114735;28;20048;-61
2022/04/01 12:13:53;;;;;;;4.10;1.70;;;4.80;99.90;;;;;;5114395;28;20052;-62
2022/04/01 12:16:21;;;;;;;5.05;1.92;;;4.90;99.90;;;;;;5114648;28;20043;-63
2022/04/01 12:18:49;;;;;;;8.45;1.95;;;4.90;99.90;;;;;;5096754;28;20047;-62
2022/04/01 12:21:22;;;;;;;4.15;2.17;;;5.00;99.90;;;;;;5092537;28;20205;-62
2022/04/01 12:23:50;;;;;;;4.55;2.10;;;4.90;99.90;;;;;;5094524;28;20379;-60
2022/04/01 12:26:24;;;;;;;6.03;2.03;;;4.70;99.90;;;;;;5093892;28;20051;-62
2022/04/01 12:28:50;;;;;;;4.75;2.00;;;4.70;99.90;;;;;;5094523;28;20207;-61
2022/04/01 12:31:23;;;;;;;6.85;2.10;;;4.60;99.90;;;;;;5092083;28;20044;-63
2022/04/01 12:33:55;;;;;;;3.03;1.65;;;4.60;99.90;;;;;;5094024;28;20135;-62
2022/04/01 12:36:32;;;;;;;3.40;1.70;;;4.70;99.90;;;;;;5094101;28;20055;-62
2022/04/01 12:39:07;;;;;;;9.70;2.08;;;4.70;99.90;;;;;;5093474;28;20043;-61
2022/04/01 12:41:33;;;;;;;6.88;2.25;;;4.70;99.90;;;;;;5093202;28;20055;-63
2022/04/01 12:44:09;;;;;;;3.47;2.10;;;4.80;99.90;;;;;;5093668;28;20056;-63
2022/04/01 12:46:35;;;;;;;5.82;2.00;;;4.70;99.90;;;;;;5093847;28;20175;-62
2022/04/01 12:49:12;;;;;;;3.60;2.25;;;5.00;99.90;;;;;;5093653;28;20105;-64
2022/04/01 12:51:47;;;;;;;6.18;1.95;;;4.80;99.90;;;;;;5092925;28;20066;-62
2022/04/01 12:54:36;;;;;;;3.33;1.40;;;4.80;99.90;;;;;;5093943;28;20052;-63
2022/04/01 12:57:05;;;;;;;4.22;2.05;;;4.80;99.90;;;;;;5093508;28;20424;-63
2022/04/01 12:59:38;;;;;;;5.40;2.00;;;4.90;99.90;;;;;;5093257;28;20493;-64
2022/04/01 13:02:19;;;;;;;2.93;1.47;;;4.80;99.90;;;;;;5092060;28;20077;-64
2022/04/01 13:04:50;;;;;;;2.97;1.60;;;4.90;99.90;;;;;;5092349;28;20787;-65
2022/04/01 13:07:20;;;;;;;2.90;1.67;;;4.90;99.90;;;;;;5092873;28;20131;-64
2022/04/01 13:10:00;;;;;;;4.53;1.58;;;4.90;99.90;;;;;;5092375;28;20051;-64
2022/04/01 13:12:34;;;;;;;3.38;1.58;;;4.80;99.90;;;;;;5093801;28;20071;-64
2022/04/01 13:15:23;;;;;;;4.55;1.60;;;4.80;99.90;;;;;;5093399;28;20131;-63
2022/04/01 13:17:50;;;;;;;4.68;1.70;;;4.80;99.90;;;;;;5093658;28;20040;-64
2022/04/01 13:20:19;;;;;;;3.15;1.60;;;4.90;99.90;;;;;;5102737;28;20144;-63
2022/04/01 13:22:45;;;;;;;3.97;1.60;;;4.90;99.90;;;;;;5113848;28;20051;-63
2022/04/01 13:25:18;;;;;;;4.75;1.73;;;4.90;99.90;;;;;;5095072;28;20075;-64
2022/04/01 13:27:46;;;;;;;3.78;1.55;;;4.90;99.90;;;;;;5095648;28;20047;-64